Time;durP1;ratioP1;P1;durP2;ratioP2;P2;SDS_P1;SDS_P2;PMS_P1;PMS_P2;Temp;Humidity;BMP_temperature;BMP_pressure;BME280_temperature;BME280_humidity;BME280_pressure;Samples;Min_cycle;Max_cycle;Signal;HPM_P1;HPM_P2
2022/07/23 00:01:20;;;;;;;6.78;3.78;;;15.30;99.90;;;;;;4863571;29;20045;-87
2022/07/23 00:03:46;;;;;;;4.30;3.70;;;15.60;99.90;;;;;;4859883;29;20129;-88
2022/07/23 00:06:12;;;;;;;5.28;3.40;;;15.50;99.90;;;;;;4863691;29;20139;-87
2022/07/23 00:08:37;;;;;;;5.75;3.83;;;15.50;99.90;;;;;;4875061;29;20061;-88
2022/07/23 00:11:03;;;;;;;5.65;3.70;;;15.40;99.90;;;;;;4868613;29;20136;-86
2022/07/23 00:13:29;;;;;;;5.72;3.80;;;15.40;99.90;;;;;;4865336;29;20049;-87
2022/07/23 00:15:55;;;;;;;5.78;3.50;;;15.40;99.90;;;;;;4851081;29;20041;-87
2022/07/23 00:18:21;;;;;;;4.70;3.65;;;15.30;99.90;;;;;;4850588;29;20066;-87
2022/07/23 00:20:46;;;;;;;5.40;3.67;;;15.30;99.90;;;;;;4854584;29;20101;-87
2022/07/23 00:23:12;;;;;;;5.47;3.63;;;15.30;99.90;;;;;;4860365;29;20076;-87
2022/07/23 00:25:38;;;;;;;4.95;3.42;;;15.30;99.90;;;;;;4880872;29;20052;-87
2022/07/23 00:28:04;;;;;;;4.82;3.33;;;15.20;99.90;;;;;;4877973;29;20077;-87
2022/07/23 00:30:30;;;;;;;3.90;3.10;;;15.20;99.90;;;;;;4886522;29;20037;-87
2022/07/23 00:32:58;;;;;;;4.45;3.45;;;15.10;99.90;;;;;;4890025;29;20096;-86
2022/07/23 00:35:29;;;;;;;5.30;3.42;;;15.10;99.90;;;;;;4883478;29;20066;-88
2022/07/23 00:37:56;;;;;;;5.03;3.58;;;15.00;99.90;;;;;;4893173;29;20045;-87
2022/07/23 00:40:22;;;;;;;5.20;3.42;;;15.00;99.90;;;;;;4858976;29;20033;-87
2022/07/23 00:42:48;;;;;;;4.47;3.75;;;15.00;99.90;;;;;;4884321;29;20041;-87
2022/07/23 00:45:14;;;;;;;5.72;3.80;;;15.00;99.90;;;;;;4867096;29;20131;-87
2022/07/23 00:47:40;;;;;;;5.47;3.70;;;14.90;99.90;;;;;;4864485;29;20128;-87
2022/07/23 00:50:08;;;;;;;6.95;4.00;;;14.90;99.90;;;;;;4882839;29;20060;-87
2022/07/23 00:52:35;;;;;;;6.68;4.13;;;14.90;99.90;;;;;;4868523;29;20046;-87
2022/07/23 00:55:01;;;;;;;7.85;3.42;;;14.90;99.90;;;;;;4865964;29;20053;-87
2022/07/23 00:57:26;;;;;;;6.75;3.47;;;14.90;99.90;;;;;;4852808;29;20049;-87
2022/07/23 00:59:52;;;;;;;6.20;3.50;;;14.90;99.90;;;;;;4851795;29;20101;-87
2022/07/23 01:02:18;;;;;;;5.15;3.17;;;14.80;99.90;;;;;;4851057;29;20052;-88
2022/07/23 01:04:44;;;;;;;8.15;3.60;;;14.80;99.90;;;;;;4871340;29;20072;-86
2022/07/23 01:07:09;;;;;;;5.47;3.45;;;14.80;99.90;;;;;;4871055;29;20052;-87
2022/07/23 01:09:37;;;;;;;4.32;3.25;;;14.80;99.90;;;;;;4866532;29;20053;-87
2022/07/23 01:12:03;;;;;;;7.07;3.55;;;14.70;99.90;;;;;;4863115;29;20061;-87
2022/07/23 01:14:29;;;;;;;7.32;3.30;;;14.70;99.90;;;;;;4865017;29;20053;-88
2022/07/23 01:16:54;;;;;;;3.47;3.17;;;14.70;99.90;;;;;;4850371;29;20441;-84
2022/07/23 01:19:20;;;;;;;5.72;3.28;;;14.60;99.90;;;;;;4872796;29;20050;-84
2022/07/23 01:21:52;;;;;;;4.53;3.40;;;14.60;99.90;;;;;;4867387;29;20037;-83
2022/07/23 01:24:19;;;;;;;5.32;3.53;;;14.60;99.90;;;;;;4879254;29;20454;-83
2022/07/23 01:26:46;;;;;;;7.10;3.58;;;14.60;99.90;;;;;;4867471;29;20057;-84
2022/07/23 01:29:13;;;;;;;6.13;3.42;;;14.60;99.90;;;;;;4871119;29;20056;-83
2022/07/23 01:31:39;;;;;;;5.20;3.28;;;14.60;99.90;;;;;;4880681;29;20052;-83
2022/07/23 01:34:06;;;;;;;7.10;3.65;;;14.50;99.90;;;;;;4883763;29;20051;-83
2022/07/23 01:36:35;;;;;;;5.10;3.17;;;14.50;99.90;;;;;;4880669;29;20571;-83
2022/07/23 01:39:02;;;;;;;4.85;3.67;;;14.40;99.90;;;;;;4879915;29;20041;-83
2022/07/23 01:41:28;;;;;;;3.80;3.33;;;14.50;99.90;;;;;;4871534;29;20041;-83
2022/07/23 01:43:54;;;;;;;5.13;3.88;;;14.40;99.90;;;;;;4880504;29;20059;-88
2022/07/23 01:46:19;;;;;;;5.13;3.50;;;14.30;99.90;;;;;;4866727;29;20124;-87
2022/07/23 01:48:45;;;;;;;4.03;3.50;;;14.30;99.90;;;;;;4866403;29;20108;-87
2022/07/23 01:51:11;;;;;;;8.15;3.75;;;14.30;99.90;;;;;;4866999;29;20041;-87
2022/07/23 01:53:37;;;;;;;7.47;3.53;;;14.20;99.90;;;;;;4880420;29;20042;-83
2022/07/23 01:56:03;;;;;;;5.28;3.95;;;14.20;99.90;;;;;;4864128;29;20045;-84
2022/07/23 01:58:29;;;;;;;4.55;3.58;;;14.20;99.90;;;;;;4864581;29;20041;-84
2022/07/23 02:00:55;;;;;;;7.82;3.65;;;14.20;99.90;;;;;;4863317;29;20041;-84
2022/07/23 02:03:21;;;;;;;4.72;3.60;;;14.10;99.90;;;;;;4859560;29;20570;-83
2022/07/23 02:05:47;;;;;;;4.35;3.95;;;14.20;99.90;;;;;;4859622;29;20069;-84
2022/07/23 02:08:13;;;;;;;5.30;3.70;;;14.10;99.90;;;;;;4865144;29;20048;-83
2022/07/23 02:10:38;;;;;;;5.00;3.60;;;14.10;99.90;;;;;;4880356;29;20052;-84
2022/07/23 02:13:04;;;;;;;8.10;3.90;;;14.10;99.90;;;;;;4880846;29;20526;-84
2022/07/23 02:15:30;;;;;;;5.32;4.18;;;14.10;99.90;;;;;;4876730;29;20113;-85
2022/07/23 02:17:56;;;;;;;4.22;3.60;;;14.20;99.90;;;;;;4849535;29;20464;-85
2022/07/23 02:20:22;;;;;;;7.10;3.85;;;14.20;99.90;;;;;;4858067;29;20068;-83
2022/07/23 02:22:48;;;;;;;4.85;3.53;;;14.20;99.90;;;;;;4864585;29;20053;-84
2022/07/23 02:25:14;;;;;;;5.97;3.45;;;14.20;99.90;;;;;;4877190;29;20072;-83
2022/07/23 02:27:40;;;;;;;4.38;3.50;;;14.20;99.90;;;;;;4869803;29;20069;-87
2022/07/23 02:30:06;;;;;;;5.20;4.07;;;14.20;99.90;;;;;;4864183;29;20510;-87
2022/07/23 02:32:32;;;;;;;7.18;3.80;;;14.20;99.90;;;;;;4875355;29;20049;-87
2022/07/23 02:34:58;;;;;;;5.13;3.72;;;14.20;99.90;;;;;;4867309;29;20391;-87
2022/07/23 02:37:23;;;;;;;6.72;3.83;;;14.20;99.90;;;;;;4864483;29;20059;-88
2022/07/23 02:39:50;;;;;;;6.00;4.47;;;14.10;99.90;;;;;;4847025;29;20037;-87
2022/07/23 02:42:16;;;;;;;6.15;3.80;;;14.10;99.90;;;;;;4866381;29;20052;-88
2022/07/23 02:44:42;;;;;;;5.82;3.92;;;14.10;99.90;;;;;;4876495;29;20041;-87
2022/07/23 02:47:07;;;;;;;5.43;3.65;;;14.10;99.90;;;;;;4861274;29;20521;-83
2022/07/23 02:49:33;;;;;;;5.20;3.90;;;14.00;99.90;;;;;;4866108;29;20411;-88
2022/07/23 02:51:59;;;;;;;5.63;4.10;;;14.00;99.90;;;;;;4880427;29;20088;-85
2022/07/23 02:54:25;;;;;;;7.03;4.10;;;14.00;99.90;;;;;;4848800;29;20065;-88
2022/07/23 02:56:51;;;;;;;4.60;4.00;;;13.90;99.90;;;;;;4881354;29;20041;-88
2022/07/23 02:59:17;;;;;;;6.65;3.85;;;13.90;99.90;;;;;;4876532;29;20037;-83
2022/07/23 03:01:43;;;;;;;5.65;4.10;;;13.80;99.90;;;;;;4874079;29;20037;-83
2022/07/23 03:04:09;;;;;;;6.22;3.85;;;13.80;99.90;;;;;;4879138;29;20077;-83
2022/07/23 03:06:35;;;;;;;5.07;3.70;;;13.80;99.90;;;;;;4848680;29;20045;-83
2022/07/23 03:09:01;;;;;;;5.60;3.97;;;13.80;99.90;;;;;;4863770;29;20045;-83
2022/07/23 03:11:26;;;;;;;4.63;3.80;;;13.80;99.90;;;;;;4863701;29;20105;-83
2022/07/23 03:13:53;;;;;;;6.78;4.03;;;13.70;99.90;;;;;;4872593;29;20486;-83
2022/07/23 03:16:18;;;;;;;6.35;4.10;;;13.70;99.90;;;;;;4894416;29;20100;-84
2022/07/23 03:18:44;;;;;;;4.88;4.15;;;13.70;99.90;;;;;;4881790;29;20049;-84
2022/07/23 03:21:10;;;;;;;11.73;4.40;;;13.70;99.90;;;;;;4878734;29;20398;-84
2022/07/23 03:23:35;;;;;;;5.60;3.92;;;13.70;99.90;;;;;;4865489;29;20057;-89
2022/07/23 03:26:01;;;;;;;5.78;4.13;;;13.60;99.90;;;;;;4865036;29;20045;-83
2022/07/23 03:28:27;;;;;;;4.88;3.92;;;13.60;99.90;;;;;;4863673;29;20045;-83
2022/07/23 03:30:52;;;;;;;5.15;3.80;;;13.60;99.90;;;;;;4862719;29;20505;-83
2022/07/23 03:33:19;;;;;;;5.25;4.05;;;13.50;99.90;;;;;;4862532;29;20045;-83
2022/07/23 03:35:45;;;;;;;6.78;4.43;;;13.50;99.90;;;;;;4864115;29;20043;-88
2022/07/23 03:38:11;;;;;;;6.15;4.35;;;13.50;99.90;;;;;;4869252;29;20056;-88
2022/07/23 03:40:37;;;;;;;6.88;4.18;;;13.50;99.90;;;;;;4867013;29;20046;-83
2022/07/23 03:43:03;;;;;;;7.30;4.72;;;13.50;99.90;;;;;;4861887;29;20049;-84
2022/07/23 03:45:28;;;;;;;4.68;3.92;;;13.50;99.90;;;;;;4860762;29;20053;-89
2022/07/23 03:47:54;;;;;;;5.20;4.10;;;13.40;99.90;;;;;;4858337;29;20061;-88
2022/07/23 03:50:20;;;;;;;4.50;3.65;;;13.40;99.90;;;;;;4848030;29;20045;-82
2022/07/23 03:52:46;;;;;;;6.35;3.70;;;13.40;99.90;;;;;;4880367;29;20045;-82
2022/07/23 03:55:12;;;;;;;7.47;3.78;;;13.30;99.90;;;;;;4856737;29;20068;-82
2022/07/23 03:57:38;;;;;;;4.05;3.65;;;13.30;99.90;;;;;;4861548;29;20069;-82
2022/07/23 04:00:06;;;;;;;6.50;4.03;;;13.30;99.90;;;;;;4872961;29;20090;-82
2022/07/23 04:02:32;;;;;;;6.05;3.83;;;13.30;99.90;;;;;;4894427;29;20052;-82
2022/07/23 04:05:00;;;;;;;3.80;3.40;;;13.30;99.90;;;;;;4846152;29;20062;-83
2022/07/23 04:07:25;;;;;;;4.70;3.22;;;13.30;99.90;;;;;;4882035;29;20084;-83
2022/07/23 04:09:51;;;;;;;5.05;3.35;;;13.30;99.90;;;;;;4876488;29;20073;-83
2022/07/23 04:12:17;;;;;;;4.50;3.38;;;13.30;99.90;;;;;;4868381;29;20498;-88
2022/07/23 04:14:43;;;;;;;4.28;2.90;;;13.30;99.90;;;;;;4888785;29;20053;-88
2022/07/23 04:17:08;;;;;;;4.43;3.25;;;13.30;99.90;;;;;;4855386;29;20041;-88
2022/07/23 04:19:39;;;;;;;3.80;3.08;;;13.30;99.90;;;;;;4882744;29;20038;-88
2022/07/23 04:22:06;;;;;;;5.40;3.40;;;13.20;99.90;;;;;;4857062;29;20037;-89
2022/07/23 04:24:32;;;;;;;3.97;3.08;;;13.30;99.90;;;;;;4887402;29;20045;-88
2022/07/23 04:26:58;;;;;;;4.70;3.10;;;13.30;99.90;;;;;;4887401;29;20045;-88
2022/07/23 04:29:25;;;;;;;4.63;2.95;;;13.30;99.90;;;;;;4883017;29;20037;-88
2022/07/23 04:31:51;;;;;;;6.07;3.03;;;13.30;99.90;;;;;;4868771;29;20486;-88
2022/07/23 04:34:17;;;;;;;4.72;3.47;;;13.30;99.90;;;;;;4839744;29;20105;-88
2022/07/23 04:36:43;;;;;;;5.38;2.83;;;13.30;99.90;;;;;;4852377;29;20047;-84
2022/07/23 04:39:08;;;;;;;4.45;3.20;;;13.30;99.90;;;;;;4869456;29;20124;-88
2022/07/23 04:41:34;;;;;;;3.83;3.00;;;13.30;99.90;;;;;;4869857;29;20044;-88
2022/07/23 04:44:01;;;;;;;3.90;3.30;;;13.30;99.90;;;;;;4884272;29;20041;-89
2022/07/23 04:46:27;;;;;;;6.07;4.15;;;13.40;99.90;;;;;;4884976;29;20053;-88
2022/07/23 04:48:54;;;;;;;4.78;3.30;;;13.30;99.90;;;;;;4884805;29;20065;-88
2022/07/23 04:51:19;;;;;;;5.00;3.28;;;13.40;99.90;;;;;;4875791;29;20073;-88
2022/07/23 04:53:45;;;;;;;4.35;3.50;;;13.40;99.90;;;;;;4868952;29;20128;-88
2022/07/23 04:56:11;;;;;;;4.50;3.35;;;13.40;99.90;;;;;;4882620;29;20040;-88
2022/07/23 04:58:37;;;;;;;5.05;3.90;;;13.50;99.90;;;;;;4898901;29;20073;-88
2022/07/23 05:01:03;;;;;;;7.18;3.67;;;13.50;99.90;;;;;;4887724;29;20044;-88
2022/07/23 05:03:29;;;;;;;6.35;4.10;;;13.50;99.90;;;;;;4873137;29;20048;-88
2022/07/23 05:05:54;;;;;;;7.15;3.92;;;13.60;99.90;;;;;;4875617;29;20045;-88
2022/07/23 05:08:20;;;;;;;6.68;4.20;;;13.60;99.90;;;;;;4861303;29;20078;-88
2022/07/23 05:10:46;;;;;;;5.35;4.00;;;13.60;99.90;;;;;;4866404;29;20170;-88
2022/07/23 05:13:14;;;;;;;4.68;4.18;;;13.60;99.90;;;;;;4873915;29;20050;-88
2022/07/23 05:15:40;;;;;;;7.97;4.07;;;13.70;99.90;;;;;;4867177;29;20044;-84
2022/07/23 05:18:05;;;;;;;8.32;4.35;;;13.80;99.90;;;;;;4853805;29;20041;-88
2022/07/23 05:20:31;;;;;;;8.25;4.55;;;13.80;99.90;;;;;;4868797;29;20041;-90
2022/07/23 05:22:57;;;;;;;5.80;4.38;;;13.80;99.90;;;;;;4853501;29;20513;-88
2022/07/23 05:25:22;;;;;;;7.20;4.85;;;13.90;99.90;;;;;;4868100;29;20053;-87
2022/07/23 05:27:48;;;;;;;6.30;4.28;;;13.90;99.90;;;;;;4868986;29;20060;-88
2022/07/23 05:30:14;;;;;;;5.00;3.95;;;14.00;99.90;;;;;;4846307;29;20081;-88
2022/07/23 05:32:40;;;;;;;9.43;4.22;;;14.00;99.90;;;;;;4878075;29;20073;-87
2022/07/23 05:35:07;;;;;;;6.35;4.57;;;14.10;99.90;;;;;;4867953;29;20041;-84
2022/07/23 05:37:32;;;;;;;9.85;4.60;;;14.20;99.90;;;;;;4882057;29;20048;-87
2022/07/23 05:40:07;;;;;;;6.10;3.95;;;14.10;99.90;;;;;;4883841;29;20037;-88
2022/07/23 05:42:37;;;;;;;6.22;3.67;;;14.30;99.90;;;;;;4876480;29;20083;-87
2022/07/23 05:45:04;;;;;;;7.00;4.07;;;14.30;99.90;;;;;;4867210;29;20040;-87
2022/07/23 05:47:57;;;;;;;7.88;4.25;;;14.40;99.90;;;;;;4880290;29;20045;-84
2022/07/23 05:50:23;;;;;;;5.32;3.38;;;14.50;99.90;;;;;;4882660;29;20061;-87
2022/07/23 05:52:48;;;;;;;4.60;3.35;;;14.50;99.90;;;;;;4883590;29;20049;-87
2022/07/23 05:55:14;;;;;;;7.95;3.67;;;14.60;99.90;;;;;;4854466;29;20390;-87
2022/07/23 05:57:41;;;;;;;7.65;3.33;;;14.60;99.90;;;;;;4858521;29;20036;-83
2022/07/23 06:00:09;;;;;;;6.47;3.80;;;14.70;99.90;;;;;;4865167;29;20047;-82
2022/07/23 06:02:34;;;;;;;7.47;2.90;;;14.80;99.90;;;;;;4872418;29;20045;-87
2022/07/23 06:05:00;;;;;;;3.72;2.97;;;14.90;99.90;;;;;;4875452;29;20069;-88
2022/07/23 06:07:26;;;;;;;4.80;2.83;;;14.90;99.90;;;;;;4872110;29;20052;-86
2022/07/23 06:09:51;;;;;;;4.43;3.05;;;15.00;99.90;;;;;;4864977;29;20044;-86
2022/07/23 06:12:18;;;;;;;8.73;3.25;;;15.10;99.90;;;;;;4880170;29;20083;-87
2022/07/23 06:14:43;;;;;;;6.50;2.67;;;15.10;99.90;;;;;;4881477;29;20045;-88
2022/07/23 06:17:09;;;;;;;6.53;2.35;;;15.20;99.90;;;;;;4867515;29;20041;-88
2022/07/23 06:19:35;;;;;;;3.50;2.08;;;15.20;99.90;;;;;;4883741;29;20055;-91
2022/07/23 06:22:01;;;;;;;5.82;2.15;;;15.30;99.90;;;;;;4884053;29;20041;-89
2022/07/23 06:24:26;;;;;;;6.85;2.40;;;15.40;99.90;;;;;;4873379;29;20041;-89
2022/07/23 06:26:52;;;;;;;4.88;2.75;;;15.40;99.90;;;;;;4852493;29;20048;-85
2022/07/23 06:29:18;;;;;;;5.13;2.17;;;15.50;99.90;;;;;;4868045;29;20127;-87
2022/07/23 06:31:43;;;;;;;4.88;2.20;;;15.70;99.90;;;;;;4862396;29;20053;-86
2022/07/23 06:34:09;;;;;;;4.68;2.30;;;15.70;99.90;;;;;;4893374;29;20036;-87
2022/07/23 06:36:35;;;;;;;3.70;1.98;;;15.80;99.90;;;;;;4873233;29;20029;-85
2022/07/23 06:39:00;;;;;;;2.75;1.80;;;15.80;99.90;;;;;;4865800;29;20053;-86
2022/07/23 06:41:26;;;;;;;5.63;1.88;;;15.90;99.90;;;;;;4863847;29;20053;-88
2022/07/23 06:43:52;;;;;;;2.78;1.73;;;16.10;99.90;;;;;;4852470;29;20509;-87
2022/07/23 06:46:17;;;;;;;4.82;1.70;;;16.40;99.90;;;;;;4844853;29;20041;-89
2022/07/23 06:48:43;;;;;;;2.15;1.60;;;16.30;99.90;;;;;;4868406;29;20057;-88
2022/07/23 06:51:09;;;;;;;3.28;1.67;;;16.50;99.90;;;;;;4870591;29;20432;-88
2022/07/23 06:53:34;;;;;;;3.08;1.50;;;16.70;99.90;;;;;;4868175;29;20142;-88
2022/07/23 06:56:00;;;;;;;2.00;1.45;;;17.00;99.90;;;;;;4843327;29;20041;-86
2022/07/23 06:58:26;;;;;;;6.00;1.42;;;17.30;99.90;;;;;;4868901;29;20041;-88
2022/07/23 07:00:51;;;;;;;6.40;1.48;;;17.50;99.90;;;;;;4867605;29;20071;-89
2022/07/23 07:03:18;;;;;;;2.85;1.35;;;17.70;99.90;;;;;;4869954;29;20045;-87
2022/07/23 07:05:44;;;;;;;2.78;1.50;;;17.80;99.90;;;;;;4865896;29;20045;-86
2022/07/23 07:08:10;;;;;;;6.43;1.65;;;18.10;99.90;;;;;;4865296;29;20181;-86
2022/07/23 07:10:35;;;;;;;4.80;1.50;;;18.30;99.90;;;;;;4862475;29;20189;-86
2022/07/23 07:13:01;;;;;;;2.25;1.10;;;18.40;99.90;;;;;;4857449;29;20060;-86
2022/07/23 07:15:27;;;;;;;4.53;1.30;;;18.60;99.90;;;;;;4862329;29;20051;-87
2022/07/23 07:17:53;;;;;;;2.13;1.10;;;18.70;99.90;;;;;;4865371;29;20044;-86
2022/07/23 07:20:18;;;;;;;4.35;1.80;;;18.80;99.90;;;;;;4865699;29;20045;-86
2022/07/23 07:22:44;;;;;;;3.92;1.05;;;18.90;99.90;;;;;;4865278;29;20104;-85
2022/07/23 07:25:10;;;;;;;4.57;1.25;;;19.00;99.90;;;;;;4865046;29;20041;-85
2022/07/23 07:27:35;;;;;;;8.52;1.40;;;19.30;99.90;;;;;;4865558;29;20045;-87
2022/07/23 07:30:02;;;;;;;4.72;1.45;;;19.50;99.90;;;;;;4865023;29;20055;-88
2022/07/23 07:32:28;;;;;;;3.42;1.20;;;19.70;99.90;;;;;;4851659;29;20521;-88
2022/07/23 07:34:54;;;;;;;6.15;1.30;;;20.00;99.90;;;;;;4863426;29;20041;-88
2022/07/23 07:37:19;;;;;;;3.95;1.17;;;20.10;99.90;;;;;;4838844;29;20045;-87
2022/07/23 07:39:45;;;;;;;1.92;1.17;;;20.20;99.90;;;;;;4879609;29;20037;-87
2022/07/23 07:42:11;;;;;;;3.55;1.40;;;20.20;99.90;;;;;;4866562;29;20037;-87
2022/07/23 07:44:36;;;;;;;5.60;1.30;;;20.10;99.90;;;;;;4872059;29;20056;-88
2022/07/23 07:47:02;;;;;;;2.28;1.23;;;19.90;99.90;;;;;;4832113;29;20046;-87
2022/07/23 07:49:28;;;;;;;5.45;1.40;;;19.90;99.90;;;;;;4873101;29;20068;-87
2022/07/23 07:51:53;;;;;;;5.65;1.58;;;19.80;99.90;;;;;;4862229;29;20068;-87
2022/07/23 07:54:19;;;;;;;3.42;1.50;;;19.60;99.90;;;;;;4864643;29;20121;-86
2022/07/23 07:56:45;;;;;;;5.03;1.48;;;19.70;99.90;;;;;;4861410;29;20048;-86
2022/07/23 07:59:11;;;;;;;5.13;1.70;;;19.80;99.90;;;;;;4860219;29;20044;-87
2022/07/23 08:01:37;;;;;;;4.20;1.58;;;19.90;99.90;;;;;;4876196;29;20057;-86
2022/07/23 08:04:02;;;;;;;3.08;1.50;;;19.80;99.90;;;;;;4874985;29;20052;-87
2022/07/23 08:06:28;;;;;;;3.25;1.30;;;19.80;99.90;;;;;;4865846;29;20460;-87
2022/07/23 08:08:54;;;;;;;4.25;1.33;;;19.70;99.90;;;;;;4859111;29;20055;-87
2022/07/23 08:11:20;;;;;;;7.95;1.27;;;19.50;99.90;;;;;;4854982;29;20177;-87
2022/07/23 08:13:46;;;;;;;3.45;1.50;;;19.40;99.90;;;;;;4858531;29;20049;-87
2022/07/23 08:16:11;;;;;;;3.50;1.80;;;19.40;99.90;;;;;;4865838;29;20052;-86
2022/07/23 08:18:37;;;;;;;2.20;1.27;;;19.40;99.90;;;;;;4890093;29;20041;-86
2022/07/23 08:21:05;;;;;;;3.30;1.05;;;19.50;99.90;;;;;;4851110;29;20120;-85
2022/07/23 08:23:31;;;;;;;3.05;1.10;;;19.80;99.90;;;;;;4879249;29;20137;-87
2022/07/23 08:25:57;;;;;;;3.40;1.30;;;20.10;99.90;;;;;;4873314;29;20045;-85
2022/07/23 08:28:23;;;;;;;4.72;0.93;;;20.40;99.90;;;;;;4868250;29;20543;-85
2022/07/23 08:30:49;;;;;;;4.45;1.10;;;20.40;99.90;;;;;;4878629;29;20041;-87
2022/07/23 08:33:18;;;;;;;1.92;0.90;;;20.30;99.90;;;;;;4868315;29;20045;-86
2022/07/23 08:35:49;;;;;;;3.53;0.70;;;20.10;99.90;;;;;;4866081;29;20072;-86
2022/07/23 08:38:18;;;;;;;1.20;0.90;;;19.80;99.90;;;;;;4882619;29;20045;-86
2022/07/23 08:40:52;;;;;;;1.13;0.80;;;19.60;99.90;;;;;;4857717;29;20041;-85
2022/07/23 08:43:24;;;;;;;4.15;1.08;;;19.50;99.90;;;;;;4875190;29;20052;-86
2022/07/23 08:45:52;;;;;;;2.05;1.00;;;19.50;99.90;;;;;;4887674;29;20049;-86
2022/07/23 08:48:23;;;;;;;2.08;1.00;;;19.50;99.90;;;;;;4890188;29;20124;-86
2022/07/23 08:50:56;;;;;;;7.55;1.23;;;19.40;99.90;;;;;;4885430;29;20053;-86
2022/07/23 08:53:23;;;;;;;1.92;1.00;;;19.40;99.90;;;;;;4881417;29;20129;-86
2022/07/23 08:55:51;;;;;;;1.33;1.10;;;19.50;99.90;;;;;;4881980;29;20044;-86
2022/07/23 08:58:18;;;;;;;1.45;0.80;;;19.70;99.90;;;;;;4882138;29;20136;-85
2022/07/23 09:00:47;;;;;;;2.08;0.88;;;19.90;99.90;;;;;;4883220;29;20052;-86
2022/07/23 09:03:21;;;;;;;3.40;0.90;;;20.30;99.90;;;;;;4857860;29;20423;-86
2022/07/23 09:05:50;;;;;;;1.08;0.80;;;20.60;99.90;;;;;;4873640;29;20100;-86
2022/07/23 09:08:18;;;;;;;1.38;0.63;;;20.70;99.90;;;;;;4867503;29;20132;-86
2022/07/23 09:10:53;;;;;;;2.05;0.80;;;20.70;99.90;;;;;;4891456;29;20435;-86
2022/07/23 09:13:34;;;;;;;;;;;20.60;99.90;;;;;;4895023;29;20049;-86
2022/07/23 09:16:06;;;;;;;2.47;0.90;;;20.50;99.90;;;;;;4879341;29;20440;-86
2022/07/23 09:18:38;;;;;;;2.85;0.85;;;20.60;99.90;;;;;;4872969;29;20128;-86
2022/07/23 09:21:08;;;;;;;1.05;0.63;;;20.80;99.90;;;;;;4883468;29;20041;-86
2022/07/23 09:23:41;;;;;;;1.95;0.77;;;21.00;99.90;;;;;;4873500;29;20156;-86
2022/07/23 09:26:32;;;;;;;1.25;0.70;;;21.20;99.50;;;;;;4872994;29;20104;-86
2022/07/23 09:29:05;;;;;;;2.10;0.90;;;21.30;97.50;;;;;;4863925;29;20218;-85
2022/07/23 09:31:42;;;;;;;1.38;0.82;;;21.30;98.50;;;;;;4876996;29;20090;-86
2022/07/23 09:34:18;;;;;;;1.35;0.70;;;21.30;98.80;;;;;;4867831;29;20447;-85
2022/07/23 09:36:44;;;;;;;3.22;0.98;;;21.30;98.10;;;;;;4882377;29;20506;-87
2022/07/23 09:39:11;;;;;;;4.05;1.00;;;21.20;98.20;;;;;;4882883;29;20462;-88
2022/07/23 09:41:45;;;;;;;3.20;1.00;;;21.00;98.90;;;;;;4874877;29;20490;-86
2022/07/23 09:44:19;;;;;;;3.70;1.00;;;21.00;98.80;;;;;;4880852;29;20048;-86
2022/07/23 09:46:47;;;;;;;2.67;1.00;;;20.80;99.00;;;;;;4882452;29;20044;-86
2022/07/23 09:49:20;;;;;;;2.97;1.02;;;20.60;99.40;;;;;;4866185;29;20065;-85
2022/07/23 09:51:58;;;;;;;1.55;1.00;;;20.70;99.50;;;;;;4882264;29;20085;-84
2022/07/23 09:54:33;;;;;;;1.50;0.98;;;20.80;99.50;;;;;;4872056;29;20494;-88
2022/07/23 09:57:02;;;;;;;3.30;1.08;;;20.90;97.70;;;;;;4865610;29;20041;-84
2022/07/23 09:59:31;;;;;;;1.92;1.30;;;20.90;98.00;;;;;;4881017;29;20041;-85
2022/07/23 10:01:59;;;;;;;2.92;1.23;;;20.90;97.90;;;;;;4876519;29;20390;-86
2022/07/23 10:04:26;;;;;;;2.15;1.00;;;20.80;97.40;;;;;;4880896;29;20050;-85
2022/07/23 10:06:55;;;;;;;2.45;1.13;;;20.70;97.70;;;;;;4865269;29;20044;-86
2022/07/23 10:09:30;;;;;;;1.65;0.85;;;20.70;97.70;;;;;;4880853;29;20048;-86
2022/07/23 10:12:21;;;;;;;4.33;1.00;;;20.70;98.60;;;;;;4880107;29;20049;-85
2022/07/23 10:14:47;;;;;;;3.28;1.02;;;20.80;98.60;;;;;;4877204;29;20281;-86
2022/07/23 10:17:13;;;;;;;1.25;0.85;;;20.90;98.60;;;;;;4879991;29;20052;-86
2022/07/23 10:19:40;;;;;;;1.88;1.13;;;21.10;98.20;;;;;;4877518;29;20045;-84
2022/07/23 10:22:13;;;;;;;2.47;1.02;;;21.10;98.20;;;;;;4836134;29;20045;-84
2022/07/23 10:25:00;;;;;;;2.30;1.25;;;21.00;97.70;;;;;;4865417;29;20065;-84
2022/07/23 10:28:04;;;;;;;2.85;1.10;;;20.90;98.00;;;;;;4880193;29;20045;-84
2022/07/23 10:30:48;;;;;;;1.45;1.08;;;20.90;97.50;;;;;;4864803;29;20380;-85
2022/07/23 10:33:45;;;;;;;2.15;1.33;;;20.90;97.80;;;;;;4863588;29;20041;-86
2022/07/23 10:36:21;;;;;;;2.20;1.13;;;20.80;97.30;;;;;;4876451;29;20037;-85
2022/07/23 10:39:07;;;;;;;3.85;1.30;;;20.90;97.40;;;;;;4876166;29;20045;-86
2022/07/23 10:41:41;;;;;;;3.92;1.30;;;20.90;97.50;;;;;;4880836;29;20144;-86
2022/07/23 10:44:13;;;;;;;2.80;1.42;;;20.90;97.80;;;;;;4882447;29;20080;-86
2022/07/23 10:49:30;;;;;;;1.50;1.10;;;21.10;97.80;;;;;;4880174;29;20064;-86
2022/07/23 10:52:26;;;;;;;2.35;1.30;;;21.20;98.00;;;;;;4876146;29;20041;-86
2022/07/23 10:54:53;;;;;;;3.58;1.42;;;21.30;97.50;;;;;;4878271;29;20092;-85
2022/07/23 10:57:24;;;;;;;1.90;1.30;;;21.30;97.60;;;;;;4880342;29;20082;-86
2022/07/23 11:02:31;;;;;;;3.33;1.48;;;21.40;97.30;;;;;;4874944;29;20041;-85
2022/07/23 11:05:06;;;;;;;2.58;1.25;;;21.40;97.90;;;;;;4875590;29;20049;-85
2022/07/23 11:07:33;;;;;;;2.55;1.50;;;21.50;98.00;;;;;;4875950;29;20124;-85
2022/07/23 11:09:58;;;;;;;1.60;1.45;;;21.50;97.90;;;;;;4864256;29;20045;-86
2022/07/23 11:12:24;;;;;;;2.38;1.50;;;21.50;97.30;;;;;;4877565;29;20639;-89
2022/07/23 11:15:06;;;;;;;2.83;1.50;;;21.50;97.60;;;;;;4881974;29;20131;-88
2022/07/23 11:17:43;;;;;;;2.63;1.30;;;21.50;96.30;;;;;;4866956;29;20502;-87
2022/07/23 11:20:28;;;;;;;1.85;1.50;;;21.40;96.90;;;;;;4877281;29;20394;-89
2022/07/23 11:22:58;;;;;;;2.95;1.70;;;21.30;97.00;;;;;;4888049;29;20074;-87
2022/07/23 11:25:29;;;;;;;4.35;1.40;;;21.20;97.30;;;;;;4880464;29;20072;-87
2022/07/23 11:28:09;;;;;;;2.53;1.40;;;21.20;97.60;;;;;;4863361;29;20051;-88
2022/07/23 11:30:35;;;;;;;3.45;1.67;;;21.10;97.40;;;;;;4866744;29;20049;-88
2022/07/23 11:33:07;;;;;;;2.10;1.35;;;21.10;97.60;;;;;;4880739;29;20049;-87
2022/07/23 11:35:33;;;;;;;2.63;1.30;;;21.10;97.50;;;;;;4865769;29;20045;-88
2022/07/23 11:38:13;;;;;;;1.75;1.35;;;21.20;97.40;;;;;;4857194;29;20060;-88
2022/07/23 11:40:40;;;;;;;3.30;1.50;;;21.30;97.60;;;;;;4877554;29;20037;-88
2022/07/23 11:43:08;;;;;;;2.33;1.30;;;21.40;97.80;;;;;;4875528;29;20053;-86
2022/07/23 11:45:37;;;;;;;3.10;1.30;;;21.50;98.10;;;;;;4870462;29;20096;-87
2022/07/23 11:48:04;;;;;;;2.95;1.40;;;21.70;98.10;;;;;;4872131;29;20064;-87
2022/07/23 11:50:30;;;;;;;3.40;1.42;;;21.80;98.10;;;;;;4868118;29;20119;-87
2022/07/23 11:52:56;;;;;;;2.28;1.77;;;21.90;98.30;;;;;;4876643;29;20073;-87
2022/07/23 11:55:23;;;;;;;1.63;1.30;;;22.00;98.00;;;;;;4865575;29;20037;-86
2022/07/23 11:57:51;;;;;;;3.13;1.60;;;22.10;98.40;;;;;;4860306;29;20486;-87
2022/07/23 12:00:20;;;;;;;3.25;1.75;;;22.20;98.20;;;;;;4866754;29;20055;-87
2022/07/23 12:02:50;;;;;;;2.13;1.35;;;22.20;97.80;;;;;;4868221;29;20057;-88
2022/07/23 12:05:25;;;;;;;1.77;1.23;;;22.30;97.80;;;;;;4869519;29;20049;-87
2022/07/23 12:07:52;;;;;;;2.70;1.40;;;22.40;96.90;;;;;;4858809;29;20049;-87
2022/07/23 12:10:20;;;;;;;2.65;1.63;;;22.50;97.50;;;;;;4867713;29;20064;-87
2022/07/23 12:12:52;;;;;;;3.80;1.40;;;22.50;97.30;;;;;;4856015;29;20049;-88
2022/07/23 12:15:26;;;;;;;1.80;1.30;;;22.60;96.30;;;;;;4885867;29;20041;-87
2022/07/23 12:17:53;;;;;;;3.10;1.50;;;22.60;96.90;;;;;;4895120;29;20041;-86
2022/07/23 12:20:23;;;;;;;3.55;1.20;;;22.70;97.10;;;;;;4903784;29;20049;-86
2022/07/23 12:22:52;;;;;;;1.55;1.40;;;22.90;96.90;;;;;;4888590;29;20041;-85
2022/07/23 12:25:21;;;;;;;2.70;1.60;;;23.00;96.50;;;;;;4877826;29;20080;-87
2022/07/23 12:28:08;;;;;;;2.97;1.80;;;23.00;96.20;;;;;;4885954;29;20435;-87
2022/07/23 12:30:38;;;;;;;3.55;1.33;;;23.10;95.60;;;;;;4871486;29;20116;-88
2022/07/23 12:33:05;;;;;;;2.70;1.52;;;23.10;96.00;;;;;;4870234;29;20107;-88
2022/07/23 12:35:46;;;;;;;3.08;1.50;;;23.20;95.10;;;;;;4885918;29;20045;-87
2022/07/23 12:38:18;;;;;;;4.35;1.52;;;23.10;95.60;;;;;;4885732;29;20042;-86
2022/07/23 12:40:56;;;;;;;2.47;1.38;;;23.10;95.70;;;;;;4883709;29;20041;-88
2022/07/23 12:43:37;;;;;;;2.33;1.40;;;23.10;95.10;;;;;;4868060;29;20061;-86
2022/07/23 12:46:18;;;;;;;3.38;1.42;;;23.00;95.80;;;;;;4876185;29;20045;-87
2022/07/23 12:48:49;;;;;;;1.83;1.38;;;23.10;95.30;;;;;;4874629;29;20065;-88
2022/07/23 12:51:15;;;;;;;6.25;1.40;;;23.30;95.90;;;;;;4869799;29;20135;-87
2022/07/23 12:53:44;;;;;;;4.43;1.33;;;23.30;94.90;;;;;;4874721;29;20049;-87
2022/07/23 12:56:20;;;;;;;3.10;1.52;;;23.20;95.50;;;;;;4882810;29;20105;-87
2022/07/23 12:58:57;;;;;;;2.45;1.50;;;23.50;95.60;;;;;;4869087;29;20049;-87